sensor_id;sensor_type;location;lat;lon;timestamp;temperature;humidity
22444;DHT22;11389;50.864;4.330;2022-08-21T00:00:16;18.10;99.90
22444;DHT22;11389;50.864;4.330;2022-08-21T00:03:02;18.00;99.90
22444;DHT22;11389;50.864;4.330;2022-08-21T00:05:49;18.20;99.90
22444;DHT22;11389;50.864;4.330;2022-08-21T00:08:18;18.10;99.90
22444;DHT22;11389;50.864;4.330;2022-08-21T00:10:46;18.10;99.90
22444;DHT22;11389;50.864;4.330;2022-08-21T00:13:14;18.10;99.90
22444;DHT22;11389;50.864;4.330;2022-08-21T00:15:44;18.10;99.90
22444;DHT22;11389;50.864;4.330;2022-08-21T00:18:11;18.00;99.90
22444;DHT22;11389;50.864;4.330;2022-08-21T00:20:40;17.90;99.90
22444;DHT22;11389;50.864;4.330;2022-08-21T00:23:07;17.60;99.90
22444;DHT22;11389;50.864;4.330;2022-08-21T00:25:34;17.60;99.90
22444;DHT22;11389;50.864;4.330;2022-08-21T00:28:01;17.60;99.90
22444;DHT22;11389;50.864;4.330;2022-08-21T00:30:29;17.60;99.90
22444;DHT22;11389;50.864;4.330;2022-08-21T00:32:57;17.50;99.90
22444;DHT22;11389;50.864;4.330;2022-08-21T00:35:30;17.50;99.90
22444;DHT22;11389;50.864;4.330;2022-08-21T00:37:58;17.40;99.90
22444;DHT22;11389;50.864;4.330;2022-08-21T00:40:29;17.40;99.90
22444;DHT22;11389;50.864;4.330;2022-08-21T00:42:57;17.40;99.90
22444;DHT22;11389;50.864;4.330;2022-08-21T00:45:24;17.30;99.90
22444;DHT22;11389;50.864;4.330;2022-08-21T00:47:52;17.40;99.90
22444;DHT22;11389;50.864;4.330;2022-08-21T00:50:22;17.30;99.90
22444;DHT22;11389;50.864;4.330;2022-08-21T00:52:52;17.20;99.90
22444;DHT22;11389;50.864;4.330;2022-08-21T00:55:20;17.20;99.90
22444;DHT22;11389;50.864;4.330;2022-08-21T00:57:51;17.20;99.90
22444;DHT22;11389;50.864;4.330;2022-08-21T01:00:27;17.10;99.90
22444;DHT22;11389;50.864;4.330;2022-08-21T01:02:57;17.10;99.90
22444;DHT22;11389;50.864;4.330;2022-08-21T01:05:24;17.00;99.90
22444;DHT22;11389;50.864;4.330;2022-08-21T01:07:51;17.00;99.90
22444;DHT22;11389;50.864;4.330;2022-08-21T01:10:19;17.00;99.90
22444;DHT22;11389;50.864;4.330;2022-08-21T01:12:52;17.10;99.90
22444;DHT22;11389;50.864;4.330;2022-08-21T01:15:22;17.10;99.90
22444;DHT22;11389;50.864;4.330;2022-08-21T01:17:50;16.90;99.90
22444;DHT22;11389;50.864;4.330;2022-08-21T01:20:18;16.80;99.90
22444;DHT22;11389;50.864;4.330;2022-08-21T01:22:45;16.80;99.90
22444;DHT22;11389;50.864;4.330;2022-08-21T01:25:14;16.80;99.90
22444;DHT22;11389;50.864;4.330;2022-08-21T01:27:42;16.80;99.90
22444;DHT22;11389;50.864;4.330;2022-08-21T01:30:13;16.80;99.90
22444;DHT22;11389;50.864;4.330;2022-08-21T01:32:41;16.90;99.90
22444;DHT22;11389;50.864;4.330;2022-08-21T01:35:09;16.80;99.90
22444;DHT22;11389;50.864;4.330;2022-08-21T01:37:38;16.70;99.90
22444;DHT22;11389;50.864;4.330;2022-08-21T01:40:06;16.70;99.90
22444;DHT22;11389;50.864;4.330;2022-08-21T01:42:34;16.60;99.90
22444;DHT22;11389;50.864;4.330;2022-08-21T01:45:02;16.50;99.90
22444;DHT22;11389;50.864;4.330;2022-08-21T01:47:29;16.50;99.90
22444;DHT22;11389;50.864;4.330;2022-08-21T01:49:56;16.40;99.90
22444;DHT22;11389;50.864;4.330;2022-08-21T01:52:23;16.50;99.90
22444;DHT22;11389;50.864;4.330;2022-08-21T01:54:50;16.50;99.90
22444;DHT22;11389;50.864;4.330;2022-08-21T01:57:21;16.50;99.90
22444;DHT22;11389;50.864;4.330;2022-08-21T01:59:52;16.40;99.90
22444;DHT22;11389;50.864;4.330;2022-08-21T02:02:19;16.40;99.90
22444;DHT22;11389;50.864;4.330;2022-08-21T02:04:46;16.50;99.90
22444;DHT22;11389;50.864;4.330;2022-08-21T02:07:13;16.50;99.90
22444;DHT22;11389;50.864;4.330;2022-08-21T02:09:40;16.30;99.90
22444;DHT22;11389;50.864;4.330;2022-08-21T02:12:10;16.20;99.90
22444;DHT22;11389;50.864;4.330;2022-08-21T02:14:37;16.30;99.90
22444;DHT22;11389;50.864;4.330;2022-08-21T02:17:05;16.30;99.90
22444;DHT22;11389;50.864;4.330;2022-08-21T02:19:36;16.20;99.90
22444;DHT22;11389;50.864;4.330;2022-08-21T02:22:08;16.20;99.90
22444;DHT22;11389;50.864;4.330;2022-08-21T02:24:36;16.20;99.90
22444;DHT22;11389;50.864;4.330;2022-08-21T02:27:23;16.10;99.90
22444;DHT22;11389;50.864;4.330;2022-08-21T02:29:56;15.90;99.90
22444;DHT22;11389;50.864;4.330;2022-08-21T02:32:23;16.00;99.90
22444;DHT22;11389;50.864;4.330;2022-08-21T02:34:50;16.10;99.90
22444;DHT22;11389;50.864;4.330;2022-08-21T02:37:17;16.00;99.90
22444;DHT22;11389;50.864;4.330;2022-08-21T02:39:44;16.10;99.90
22444;DHT22;11389;50.864;4.330;2022-08-21T02:42:11;16.30;99.90
22444;DHT22;11389;50.864;4.330;2022-08-21T02:44:38;16.30;99.90
22444;DHT22;11389;50.864;4.330;2022-08-21T02:47:05;16.40;99.90
22444;DHT22;11389;50.864;4.330;2022-08-21T02:49:32;16.30;99.90
22444;DHT22;11389;50.864;4.330;2022-08-21T02:51:59;16.20;99.90
22444;DHT22;11389;50.864;4.330;2022-08-21T02:54:26;16.10;99.90
22444;DHT22;11389;50.864;4.330;2022-08-21T02:56:53;16.10;99.90
22444;DHT22;11389;50.864;4.330;2022-08-21T02:59:20;16.10;99.90
22444;DHT22;11389;50.864;4.330;2022-08-21T03:01:47;16.10;99.90
22444;DHT22;11389;50.864;4.330;2022-08-21T03:04:14;16.00;99.90
22444;DHT22;11389;50.864;4.330;2022-08-21T03:06:41;15.90;99.90
22444;DHT22;11389;50.864;4.330;2022-08-21T03:09:08;15.90;99.90
22444;DHT22;11389;50.864;4.330;2022-08-21T03:11:35;16.10;99.90
22444;DHT22;11389;50.864;4.330;2022-08-21T03:14:02;16.10;99.90
22444;DHT22;11389;50.864;4.330;2022-08-21T03:16:31;16.00;99.90
22444;DHT22;11389;50.864;4.330;2022-08-21T03:19:01;15.80;99.90
22444;DHT22;11389;50.864;4.330;2022-08-21T03:21:28;15.80;99.90
22444;DHT22;11389;50.864;4.330;2022-08-21T03:23:55;15.80;99.90
22444;DHT22;11389;50.864;4.330;2022-08-21T03:26:22;15.80;99.90
22444;DHT22;11389;50.864;4.330;2022-08-21T03:28:51;15.80;99.90
22444;DHT22;11389;50.864;4.330;2022-08-21T03:31:18;15.80;99.90
22444;DHT22;11389;50.864;4.330;2022-08-21T03:33:45;15.80;99.90
22444;DHT22;11389;50.864;4.330;2022-08-21T03:36:12;15.70;99.90
22444;DHT22;11389;50.864;4.330;2022-08-21T03:38:39;15.60;99.90
22444;DHT22;11389;50.864;4.330;2022-08-21T03:41:06;15.50;99.90
22444;DHT22;11389;50.864;4.330;2022-08-21T03:43:34;15.60;99.90
22444;DHT22;11389;50.864;4.330;2022-08-21T03:46:02;15.60;99.90
22444;DHT22;11389;50.864;4.330;2022-08-21T03:48:30;15.70;99.90
22444;DHT22;11389;50.864;4.330;2022-08-21T03:50:57;15.70;99.90
22444;DHT22;11389;50.864;4.330;2022-08-21T03:53:24;15.60;99.90
22444;DHT22;11389;50.864;4.330;2022-08-21T03:55:52;15.50;99.90
22444;DHT22;11389;50.864;4.330;2022-08-21T03:58:22;15.50;99.90
22444;DHT22;11389;50.864;4.330;2022-08-21T04:00:51;15.50;99.90
22444;DHT22;11389;50.864;4.330;2022-08-21T04:03:19;15.50;99.90
22444;DHT22;11389;50.864;4.330;2022-08-21T04:05:46;15.60;99.90
22444;DHT22;11389;50.864;4.330;2022-08-21T04:08:14;15.70;99.90
22444;DHT22;11389;50.864;4.330;2022-08-21T04:10:43;15.70;99.90
22444;DHT22;11389;50.864;4.330;2022-08-21T04:13:11;15.50;99.90
22444;DHT22;11389;50.864;4.330;2022-08-21T04:15:38;15.40;99.90
22444;DHT22;11389;50.864;4.330;2022-08-21T04:18:05;15.50;99.90
22444;DHT22;11389;50.864;4.330;2022-08-21T04:20:32;15.40;99.90
22444;DHT22;11389;50.864;4.330;2022-08-21T04:23:00;15.30;99.90
22444;DHT22;11389;50.864;4.330;2022-08-21T04:25:27;15.30;99.90
22444;DHT22;11389;50.864;4.330;2022-08-21T04:27:54;15.40;99.90
22444;DHT22;11389;50.864;4.330;2022-08-21T04:30:21;15.50;99.90
22444;DHT22;11389;50.864;4.330;2022-08-21T04:32:56;15.40;99.90
22444;DHT22;11389;50.864;4.330;2022-08-21T04:35:25;15.40;99.90
22444;DHT22;11389;50.864;4.330;2022-08-21T04:37:52;15.50;99.90
22444;DHT22;11389;50.864;4.330;2022-08-21T04:40:24;15.50;99.90
22444;DHT22;11389;50.864;4.330;2022-08-21T04:42:55;15.60;99.90
22444;DHT22;11389;50.864;4.330;2022-08-21T04:45:33;15.50;99.90
22444;DHT22;11389;50.864;4.330;2022-08-21T04:48:03;15.30;99.90
22444;DHT22;11389;50.864;4.330;2022-08-21T04:53:19;15.30;99.90
22444;DHT22;11389;50.864;4.330;2022-08-21T04:55:47;15.30;99.90
22444;DHT22;11389;50.864;4.330;2022-08-21T04:58:17;15.30;99.90
22444;DHT22;11389;50.864;4.330;2022-08-21T05:00:46;15.20;99.90
22444;DHT22;11389;50.864;4.330;2022-08-21T05:03:14;15.40;99.90
22444;DHT22;11389;50.864;4.330;2022-08-21T05:05:42;15.30;99.90
22444;DHT22;11389;50.864;4.330;2022-08-21T05:08:13;15.40;99.90
22444;DHT22;11389;50.864;4.330;2022-08-21T05:10:42;15.40;99.90
22444;DHT22;11389;50.864;4.330;2022-08-21T05:13:12;15.40;99.90
22444;DHT22;11389;50.864;4.330;2022-08-21T05:15:40;15.30;99.90
22444;DHT22;11389;50.864;4.330;2022-08-21T05:18:07;15.40;99.90
22444;DHT22;11389;50.864;4.330;2022-08-21T05:20:35;15.30;99.90
22444;DHT22;11389;50.864;4.330;2022-08-21T05:23:10;15.30;99.90
22444;DHT22;11389;50.864;4.330;2022-08-21T05:25:38;15.40;99.90
22444;DHT22;11389;50.864;4.330;2022-08-21T05:28:05;15.40;99.90
22444;DHT22;11389;50.864;4.330;2022-08-21T05:30:34;15.40;99.90
22444;DHT22;11389;50.864;4.330;2022-08-21T05:33:02;15.50;99.90
22444;DHT22;11389;50.864;4.330;2022-08-21T05:35:30;15.60;99.90
22444;DHT22;11389;50.864;4.330;2022-08-21T05:37:59;15.60;99.90
22444;DHT22;11389;50.864;4.330;2022-08-21T05:40:26;15.60;99.90
22444;DHT22;11389;50.864;4.330;2022-08-21T05:42:55;15.70;99.90
22444;DHT22;11389;50.864;4.330;2022-08-21T05:45:24;15.70;99.90
22444;DHT22;11389;50.864;4.330;2022-08-21T05:48:19;15.70;99.90
22444;DHT22;11389;50.864;4.330;2022-08-21T05:50:48;15.70;99.90
22444;DHT22;11389;50.864;4.330;2022-08-21T05:53:17;15.60;99.90
22444;DHT22;11389;50.864;4.330;2022-08-21T05:55:44;15.60;99.90
22444;DHT22;11389;50.864;4.330;2022-08-21T05:58:17;15.70;99.90
22444;DHT22;11389;50.864;4.330;2022-08-21T06:00:45;15.70;99.90
22444;DHT22;11389;50.864;4.330;2022-08-21T06:03:17;15.80;99.90
22444;DHT22;11389;50.864;4.330;2022-08-21T06:05:44;15.90;99.90
22444;DHT22;11389;50.864;4.330;2022-08-21T06:08:12;15.90;99.90
22444;DHT22;11389;50.864;4.330;2022-08-21T06:10:40;16.00;99.90
22444;DHT22;11389;50.864;4.330;2022-08-21T06:13:06;15.90;99.90
22444;DHT22;11389;50.864;4.330;2022-08-21T06:15:34;15.80;99.90
22444;DHT22;11389;50.864;4.330;2022-08-21T06:18:01;15.80;99.90
22444;DHT22;11389;50.864;4.330;2022-08-21T06:20:28;16.00;99.90
22444;DHT22;11389;50.864;4.330;2022-08-21T06:22:55;16.20;99.90
22444;DHT22;11389;50.864;4.330;2022-08-21T06:25:22;16.20;99.90
22444;DHT22;11389;50.864;4.330;2022-08-21T06:27:49;16.30;99.90
22444;DHT22;11389;50.864;4.330;2022-08-21T06:30:17;16.40;99.90
22444;DHT22;11389;50.864;4.330;2022-08-21T06:32:44;16.40;99.90
22444;DHT22;11389;50.864;4.330;2022-08-21T06:35:11;16.50;99.90
22444;DHT22;11389;50.864;4.330;2022-08-21T06:37:38;16.60;99.90
22444;DHT22;11389;50.864;4.330;2022-08-21T06:40:05;16.60;99.90
22444;DHT22;11389;50.864;4.330;2022-08-21T06:42:38;16.60;99.90
22444;DHT22;11389;50.864;4.330;2022-08-21T06:45:09;16.70;99.90
22444;DHT22;11389;50.864;4.330;2022-08-21T06:47:36;16.70;99.90
22444;DHT22;11389;50.864;4.330;2022-08-21T06:50:04;16.80;99.90
22444;DHT22;11389;50.864;4.330;2022-08-21T06:52:31;16.80;99.90
22444;DHT22;11389;50.864;4.330;2022-08-21T06:54:58;16.80;99.90
22444;DHT22;11389;50.864;4.330;2022-08-21T06:57:25;16.80;99.90
22444;DHT22;11389;50.864;4.330;2022-08-21T06:59:52;16.90;99.90
22444;DHT22;11389;50.864;4.330;2022-08-21T07:02:19;16.90;99.90
22444;DHT22;11389;50.864;4.330;2022-08-21T07:04:46;17.00;99.90
22444;DHT22;11389;50.864;4.330;2022-08-21T07:07:13;17.10;99.90
22444;DHT22;11389;50.864;4.330;2022-08-21T07:09:39;17.20;99.90
22444;DHT22;11389;50.864;4.330;2022-08-21T07:12:07;17.30;99.90
22444;DHT22;11389;50.864;4.330;2022-08-21T07:14:34;17.50;99.90
22444;DHT22;11389;50.864;4.330;2022-08-21T07:17:01;17.60;99.90
22444;DHT22;11389;50.864;4.330;2022-08-21T07:19:29;17.70;99.90
22444;DHT22;11389;50.864;4.330;2022-08-21T07:22:00;17.80;99.90
22444;DHT22;11389;50.864;4.330;2022-08-21T07:24:27;17.90;99.90
22444;DHT22;11389;50.864;4.330;2022-08-21T07:26:54;18.00;99.90
22444;DHT22;11389;50.864;4.330;2022-08-21T07:29:21;18.10;99.90
22444;DHT22;11389;50.864;4.330;2022-08-21T07:31:48;18.10;99.90
22444;DHT22;11389;50.864;4.330;2022-08-21T07:34:16;18.20;99.90
22444;DHT22;11389;50.864;4.330;2022-08-21T07:36:43;18.30;99.90
22444;DHT22;11389;50.864;4.330;2022-08-21T07:39:10;18.30;99.90
22444;DHT22;11389;50.864;4.330;2022-08-21T07:41:37;18.40;99.90
22444;DHT22;11389;50.864;4.330;2022-08-21T07:44:04;18.60;99.90
22444;DHT22;11389;50.864;4.330;2022-08-21T07:46:32;18.50;99.90
22444;DHT22;11389;50.864;4.330;2022-08-21T07:48:59;18.70;99.90
22444;DHT22;11389;50.864;4.330;2022-08-21T07:51:27;18.90;99.90
22444;DHT22;11389;50.864;4.330;2022-08-21T07:53:57;19.20;99.90
22444;DHT22;11389;50.864;4.330;2022-08-21T07:56:26;19.50;99.90
22444;DHT22;11389;50.864;4.330;2022-08-21T07:58:53;19.40;99.90
22444;DHT22;11389;50.864;4.330;2022-08-21T08:01:20;19.40;99.90
22444;DHT22;11389;50.864;4.330;2022-08-21T08:03:47;19.30;99.90
22444;DHT22;11389;50.864;4.330;2022-08-21T08:06:15;19.60;99.90
22444;DHT22;11389;50.864;4.330;2022-08-21T08:08:43;19.80;99.90
22444;DHT22;11389;50.864;4.330;2022-08-21T08:11:11;19.90;99.90
22444;DHT22;11389;50.864;4.330;2022-08-21T08:13:39;19.90;99.90
22444;DHT22;11389;50.864;4.330;2022-08-21T08:16:07;20.00;99.90
22444;DHT22;11389;50.864;4.330;2022-08-21T08:18:34;19.90;99.90
22444;DHT22;11389;50.864;4.330;2022-08-21T08:21:02;20.00;99.90
22444;DHT22;11389;50.864;4.330;2022-08-21T08:23:29;20.10;99.90
22444;DHT22;11389;50.864;4.330;2022-08-21T08:25:57;20.20;99.90
22444;DHT22;11389;50.864;4.330;2022-08-21T08:28:24;20.20;99.90
22444;DHT22;11389;50.864;4.330;2022-08-21T08:30:51;20.10;99.90
22444;DHT22;11389;50.864;4.330;2022-08-21T08:33:19;20.10;99.90
22444;DHT22;11389;50.864;4.330;2022-08-21T08:35:48;20.10;99.90
22444;DHT22;11389;50.864;4.330;2022-08-21T08:38:18;20.30;99.90
22444;DHT22;11389;50.864;4.330;2022-08-21T08:40:50;20.40;99.90
22444;DHT22;11389;50.864;4.330;2022-08-21T08:43:19;20.70;99.90
22444;DHT22;11389;50.864;4.330;2022-08-21T08:45:50;20.80;99.90
22444;DHT22;11389;50.864;4.330;2022-08-21T08:51:44;20.90;99.90
22444;DHT22;11389;50.864;4.330;2022-08-21T08:54:17;21.00;99.90
22444;DHT22;11389;50.864;4.330;2022-08-21T08:56:45;21.10;99.90
22444;DHT22;11389;50.864;4.330;2022-08-21T08:59:25;21.00;99.90
22444;DHT22;11389;50.864;4.330;2022-08-21T09:01:54;21.00;99.90
22444;DHT22;11389;50.864;4.330;2022-08-21T09:04:24;21.20;99.90
22444;DHT22;11389;50.864;4.330;2022-08-21T09:12:12;21.40;99.90
22444;DHT22;11389;50.864;4.330;2022-08-21T09:15:01;21.60;99.90
22444;DHT22;11389;50.864;4.330;2022-08-21T09:20:23;21.80;99.90
22444;DHT22;11389;50.864;4.330;2022-08-21T09:28:34;21.90;99.90
22444;DHT22;11389;50.864;4.330;2022-08-21T09:31:06;22.10;99.90
22444;DHT22;11389;50.864;4.330;2022-08-21T09:33:33;22.40;99.90
22444;DHT22;11389;50.864;4.330;2022-08-21T09:36:01;22.50;99.90
22444;DHT22;11389;50.864;4.330;2022-08-21T09:38:34;22.80;99.90
22444;DHT22;11389;50.864;4.330;2022-08-21T09:41:07;23.10;99.90
22444;DHT22;11389;50.864;4.330;2022-08-21T09:43:37;23.30;99.90
22444;DHT22;11389;50.864;4.330;2022-08-21T09:46:20;23.50;99.90
22444;DHT22;11389;50.864;4.330;2022-08-21T09:48:50;23.40;99.90
22444;DHT22;11389;50.864;4.330;2022-08-21T09:51:21;23.20;99.90
22444;DHT22;11389;50.864;4.330;2022-08-21T09:56:51;23.30;99.90
22444;DHT22;11389;50.864;4.330;2022-08-21T09:59:37;23.00;99.90
22444;DHT22;11389;50.864;4.330;2022-08-21T10:02:32;23.00;99.90
22444;DHT22;11389;50.864;4.330;2022-08-21T10:05:07;23.30;99.90
22444;DHT22;11389;50.864;4.330;2022-08-21T10:07:37;23.40;99.90
22444;DHT22;11389;50.864;4.330;2022-08-21T10:10:36;23.40;99.90
22444;DHT22;11389;50.864;4.330;2022-08-21T10:16:13;23.80;99.90
22444;DHT22;11389;50.864;4.330;2022-08-21T10:26:47;24.70;99.90
22444;DHT22;11389;50.864;4.330;2022-08-21T10:35:14;24.20;99.90
22444;DHT22;11389;50.864;4.330;2022-08-21T10:48:19;24.60;99.90
22444;DHT22;11389;50.864;4.330;2022-08-21T10:50:59;24.90;99.90
22444;DHT22;11389;50.864;4.330;2022-08-21T10:53:45;25.10;99.90
22444;DHT22;11389;50.864;4.330;2022-08-21T10:56:29;25.20;99.90
22444;DHT22;11389;50.864;4.330;2022-08-21T10:59:25;24.90;99.90
22444;DHT22;11389;50.864;4.330;2022-08-21T11:07:33;25.00;99.90
22444;DHT22;11389;50.864;4.330;2022-08-21T11:10:10;25.00;99.90
22444;DHT22;11389;50.864;4.330;2022-08-21T11:13:11;25.10;99.90
22444;DHT22;11389;50.864;4.330;2022-08-21T11:16:09;25.40;99.90
22444;DHT22;11389;50.864;4.330;2022-08-21T11:24:21;26.30;99.90
22444;DHT22;11389;50.864;4.330;2022-08-21T11:27:06;26.30;99.90
22444;DHT22;11389;50.864;4.330;2022-08-21T11:29:39;26.20;99.90
22444;DHT22;11389;50.864;4.330;2022-08-21T11:43:33;26.10;99.90
22444;DHT22;11389;50.864;4.330;2022-08-21T11:46:25;26.40;99.90
22444;DHT22;11389;50.864;4.330;2022-08-21T11:56:59;26.70;98.60
22444;DHT22;11389;50.864;4.330;2022-08-21T11:59:53;26.80;98.90
22444;DHT22;11389;50.864;4.330;2022-08-21T12:02:23;27.00;97.90
22444;DHT22;11389;50.864;4.330;2022-08-21T12:04:59;27.30;98.00
22444;DHT22;11389;50.864;4.330;2022-08-21T12:07:44;27.60;96.80
22444;DHT22;11389;50.864;4.330;2022-08-21T12:10:15;28.00;96.20
22444;DHT22;11389;50.864;4.330;2022-08-21T12:12:44;28.20;95.10
22444;DHT22;11389;50.864;4.330;2022-08-21T12:15:26;28.10;94.50
22444;DHT22;11389;50.864;4.330;2022-08-21T12:21:02;27.40;95.00
22444;DHT22;11389;50.864;4.330;2022-08-21T12:23:34;27.50;95.20
22444;DHT22;11389;50.864;4.330;2022-08-21T12:26:17;27.90;94.70
22444;DHT22;11389;50.864;4.330;2022-08-21T12:28:45;28.60;93.10
22444;DHT22;11389;50.864;4.330;2022-08-21T12:31:26;28.70;92.50
22444;DHT22;11389;50.864;4.330;2022-08-21T12:34:02;28.90;93.00
22444;DHT22;11389;50.864;4.330;2022-08-21T12:36:54;29.00;92.40
22444;DHT22;11389;50.864;4.330;2022-08-21T12:39:25;28.50;92.50
22444;DHT22;11389;50.864;4.330;2022-08-21T12:42:22;28.20;93.00
22444;DHT22;11389;50.864;4.330;2022-08-21T12:47:30;28.30;91.10
22444;DHT22;11389;50.864;4.330;2022-08-21T12:50:13;27.90;91.60
22444;DHT22;11389;50.864;4.330;2022-08-21T12:53:15;27.30;91.80
22444;DHT22;11389;50.864;4.330;2022-08-21T12:55:46;26.90;92.70
22444;DHT22;11389;50.864;4.330;2022-08-21T12:58:21;26.60;93.60
22444;DHT22;11389;50.864;4.330;2022-08-21T13:00:54;26.60;93.70
22444;DHT22;11389;50.864;4.330;2022-08-21T13:03:23;27.00;93.80
22444;DHT22;11389;50.864;4.330;2022-08-21T13:05:51;27.30;93.40
22444;DHT22;11389;50.864;4.330;2022-08-21T13:08:22;27.40;93.50
22444;DHT22;11389;50.864;4.330;2022-08-21T13:11:01;27.60;93.40
22444;DHT22;11389;50.864;4.330;2022-08-21T13:13:41;27.70;93.00
22444;DHT22;11389;50.864;4.330;2022-08-21T13:16:25;27.60;92.90
22444;DHT22;11389;50.864;4.330;2022-08-21T13:19:05;27.60;92.60
22444;DHT22;11389;50.864;4.330;2022-08-21T13:21:35;27.60;91.90
22444;DHT22;11389;50.864;4.330;2022-08-21T13:24:31;27.80;92.10
22444;DHT22;11389;50.864;4.330;2022-08-21T13:27:32;27.80;92.60
22444;DHT22;11389;50.864;4.330;2022-08-21T13:30:13;27.80;92.20
22444;DHT22;11389;50.864;4.330;2022-08-21T13:32:43;28.20;91.50
22444;DHT22;11389;50.864;4.330;2022-08-21T13:35:19;28.20;91.40
22444;DHT22;11389;50.864;4.330;2022-08-21T13:37:48;28.50;91.00
22444;DHT22;11389;50.864;4.330;2022-08-21T13:40:30;28.40;90.60
22444;DHT22;11389;50.864;4.330;2022-08-21T13:42:59;28.60;90.60
22444;DHT22;11389;50.864;4.330;2022-08-21T13:45:32;29.10;90.20
22444;DHT22;11389;50.864;4.330;2022-08-21T13:48:01;29.60;88.90
22444;DHT22;11389;50.864;4.330;2022-08-21T13:50:41;29.90;86.80
22444;DHT22;11389;50.864;4.330;2022-08-21T13:55:53;29.20;87.40
22444;DHT22;11389;50.864;4.330;2022-08-21T13:58:33;28.90;89.20
22444;DHT22;11389;50.864;4.330;2022-08-21T14:01:21;28.90;88.60
22444;DHT22;11389;50.864;4.330;2022-08-21T14:03:49;28.80;88.70
22444;DHT22;11389;50.864;4.330;2022-08-21T14:06:21;29.10;88.10
22444;DHT22;11389;50.864;4.330;2022-08-21T14:08:51;29.00;87.00
22444;DHT22;11389;50.864;4.330;2022-08-21T14:11:20;28.90;87.50
22444;DHT22;11389;50.864;4.330;2022-08-21T14:17:06;28.50;88.20
22444;DHT22;11389;50.864;4.330;2022-08-21T14:19:51;28.60;88.70
22444;DHT22;11389;50.864;4.330;2022-08-21T14:22:39;28.20;88.80
22444;DHT22;11389;50.864;4.330;2022-08-21T14:25:12;28.00;88.80
22444;DHT22;11389;50.864;4.330;2022-08-21T14:30:34;27.70;89.60
22444;DHT22;11389;50.864;4.330;2022-08-21T14:33:22;28.20;89.20
22444;DHT22;11389;50.864;4.330;2022-08-21T14:35:56;28.30;89.00
22444;DHT22;11389;50.864;4.330;2022-08-21T14:38:24;29.20;88.60
22444;DHT22;11389;50.864;4.330;2022-08-21T14:41:03;30.40;86.40
22444;DHT22;11389;50.864;4.330;2022-08-21T14:43:31;31.00;84.40
22444;DHT22;11389;50.864;4.330;2022-08-21T14:45:58;30.90;83.80
22444;DHT22;11389;50.864;4.330;2022-08-21T14:48:27;31.00;83.20
22444;DHT22;11389;50.864;4.330;2022-08-21T14:50:54;31.40;82.20
22444;DHT22;11389;50.864;4.330;2022-08-21T14:53:26;32.40;81.00
22444;DHT22;11389;50.864;4.330;2022-08-21T14:55:53;32.80;78.50
22444;DHT22;11389;50.864;4.330;2022-08-21T14:58:39;32.30;75.90
22444;DHT22;11389;50.864;4.330;2022-08-21T15:01:08;31.20;78.00
22444;DHT22;11389;50.864;4.330;2022-08-21T15:03:37;30.50;79.40
22444;DHT22;11389;50.864;4.330;2022-08-21T15:06:05;29.70;78.70
22444;DHT22;11389;50.864;4.330;2022-08-21T15:08:33;29.00;80.70
22444;DHT22;11389;50.864;4.330;2022-08-21T15:11:01;28.40;83.20
22444;DHT22;11389;50.864;4.330;2022-08-21T15:13:42;28.00;83.70
22444;DHT22;11389;50.864;4.330;2022-08-21T15:16:11;27.60;85.20
22444;DHT22;11389;50.864;4.330;2022-08-21T15:18:38;27.20;86.50
22444;DHT22;11389;50.864;4.330;2022-08-21T15:21:05;27.00;86.90
22444;DHT22;11389;50.864;4.330;2022-08-21T15:23:32;26.80;87.60
22444;DHT22;11389;50.864;4.330;2022-08-21T15:25:59;26.50;88.80
22444;DHT22;11389;50.864;4.330;2022-08-21T15:28:28;26.50;89.10
22444;DHT22;11389;50.864;4.330;2022-08-21T15:30:59;26.60;88.40
22444;DHT22;11389;50.864;4.330;2022-08-21T15:33:27;26.50;88.50
22444;DHT22;11389;50.864;4.330;2022-08-21T15:35:54;26.40;89.20
22444;DHT22;11389;50.864;4.330;2022-08-21T15:38:21;26.40;89.70
22444;DHT22;11389;50.864;4.330;2022-08-21T15:40:49;26.10;90.10
22444;DHT22;11389;50.864;4.330;2022-08-21T15:43:28;25.80;90.50
22444;DHT22;11389;50.864;4.330;2022-08-21T15:45:58;25.70;90.90
22444;DHT22;11389;50.864;4.330;2022-08-21T15:48:26;25.50;91.30
22444;DHT22;11389;50.864;4.330;2022-08-21T15:50:53;25.40;91.10
22444;DHT22;11389;50.864;4.330;2022-08-21T15:53:20;25.40;92.00
22444;DHT22;11389;50.864;4.330;2022-08-21T15:55:47;25.40;91.20
22444;DHT22;11389;50.864;4.330;2022-08-21T15:58:16;25.20;91.50
22444;DHT22;11389;50.864;4.330;2022-08-21T16:00:43;25.40;91.60
22444;DHT22;11389;50.864;4.330;2022-08-21T16:03:14;25.50;91.20
22444;DHT22;11389;50.864;4.330;2022-08-21T16:05:46;25.60;91.40
22444;DHT22;11389;50.864;4.330;2022-08-21T16:08:17;25.80;91.30
22444;DHT22;11389;50.864;4.330;2022-08-21T16:10:47;26.00;90.90
22444;DHT22;11389;50.864;4.330;2022-08-21T16:13:29;26.10;90.60
22444;DHT22;11389;50.864;4.330;2022-08-21T16:15:59;25.90;91.00
22444;DHT22;11389;50.864;4.330;2022-08-21T16:18:26;25.80;91.30
22444;DHT22;11389;50.864;4.330;2022-08-21T16:20:53;25.80;91.40
22444;DHT22;11389;50.864;4.330;2022-08-21T16:23:20;25.90;91.30
22444;DHT22;11389;50.864;4.330;2022-08-21T16:25:48;26.00;91.00
22444;DHT22;11389;50.864;4.330;2022-08-21T16:28:18;26.00;91.40
22444;DHT22;11389;50.864;4.330;2022-08-21T16:30:48;26.00;91.00
22444;DHT22;11389;50.864;4.330;2022-08-21T16:35:47;26.20;90.80
22444;DHT22;11389;50.864;4.330;2022-08-21T16:38:14;26.00;90.90
22444;DHT22;11389;50.864;4.330;2022-08-21T16:40:41;25.90;91.10
22444;DHT22;11389;50.864;4.330;2022-08-21T16:43:09;25.90;91.00
22444;DHT22;11389;50.864;4.330;2022-08-21T16:45:37;25.90;91.00
22444;DHT22;11389;50.864;4.330;2022-08-21T16:48:04;26.00;91.20
22444;DHT22;11389;50.864;4.330;2022-08-21T16:50:37;26.00;91.10
22444;DHT22;11389;50.864;4.330;2022-08-21T16:53:04;26.10;91.10
22444;DHT22;11389;50.864;4.330;2022-08-21T16:55:34;26.10;90.80
22444;DHT22;11389;50.864;4.330;2022-08-21T16:58:12;26.10;90.60
22444;DHT22;11389;50.864;4.330;2022-08-21T17:00:42;26.10;90.70
22444;DHT22;11389;50.864;4.330;2022-08-21T17:03:13;26.10;90.70
22444;DHT22;11389;50.864;4.330;2022-08-21T17:05:42;25.90;91.10
22444;DHT22;11389;50.864;4.330;2022-08-21T17:08:10;25.70;91.50
22444;DHT22;11389;50.864;4.330;2022-08-21T17:10:37;25.50;91.50
22444;DHT22;11389;50.864;4.330;2022-08-21T17:13:05;25.40;92.10
22444;DHT22;11389;50.864;4.330;2022-08-21T17:15:37;25.20;91.90
22444;DHT22;11389;50.864;4.330;2022-08-21T17:18:08;25.00;92.00
22444;DHT22;11389;50.864;4.330;2022-08-21T17:20:36;25.00;92.10
22444;DHT22;11389;50.864;4.330;2022-08-21T17:23:03;25.00;92.10
22444;DHT22;11389;50.864;4.330;2022-08-21T17:25:30;24.90;92.40
22444;DHT22;11389;50.864;4.330;2022-08-21T17:27:58;24.90;92.50
22444;DHT22;11389;50.864;4.330;2022-08-21T17:30:25;24.70;92.60